createdAt,value
2023-02-26T00:01:40.212Z,0.80
2023-02-26T00:04:08.695Z,0.40
2023-02-26T00:06:39.009Z,0.80
2023-02-26T00:09:06.615Z,0.80
2023-02-26T00:11:34.435Z,0.60
2023-02-26T00:14:01.624Z,0.50
2023-02-26T00:16:36.604Z,0.60
2023-02-26T00:19:06.923Z,0.40
2023-02-26T00:21:36.076Z,0.20
2023-02-26T00:24:03.689Z,0.40
2023-02-26T00:26:34.340Z,0.20
2023-02-26T00:29:01.651Z,1.00
2023-02-26T00:31:29.389Z,0.60
2023-02-26T00:34:00.253Z,1.00
2023-02-26T00:36:43.103Z,0.50
2023-02-26T00:39:34.378Z,0.70
2023-02-26T00:42:02.000Z,0.50
2023-02-26T00:44:29.606Z,0.60
2023-02-26T00:47:00.170Z,0.50
2023-02-26T00:49:33.613Z,0.50
2023-02-26T00:52:07.769Z,0.40
2023-02-26T00:54:35.381Z,0.60
2023-02-26T00:57:04.352Z,0.30
2023-02-26T00:59:34.362Z,0.70
2023-02-26T01:06:58.878Z,0.40
2023-02-26T01:09:30.397Z,0.80
2023-02-26T01:12:05.575Z,0.50
2023-02-26T01:14:33.590Z,0.50
2023-02-26T01:17:12.925Z,0.60
2023-02-26T01:19:51.985Z,0.50
2023-02-26T01:22:28.485Z,0.90
2023-02-26T01:25:10.991Z,1.30
2023-02-26T01:27:39.483Z,0.60
2023-02-26T01:30:08.966Z,0.30
2023-02-26T01:32:48.229Z,0.60
2023-02-26T01:35:40.204Z,0.50
2023-02-26T01:38:32.344Z,0.60
2023-02-26T01:41:25.933Z,0.60
2023-02-26T01:44:08.487Z,1.30
2023-02-26T01:47:06.400Z,0.70
2023-02-26T01:49:34.496Z,0.60
2023-02-26T01:52:03.961Z,0.50
2023-02-26T01:54:37.085Z,0.70
2023-02-26T01:57:09.288Z,0.30
2023-02-26T01:59:41.221Z,1.40
2023-02-26T02:02:10.483Z,0.20
2023-02-26T02:04:40.249Z,0.80
2023-02-26T02:12:11.958Z,0.40
2023-02-26T02:14:55.929Z,0.50
2023-02-26T02:17:44.759Z,0.70
2023-02-26T02:20:29.919Z,0.70
2023-02-26T02:23:15.638Z,0.70
2023-02-26T02:26:15.435Z,0.40
2023-02-26T02:28:51.695Z,0.30
2023-02-26T02:31:51.616Z,0.70
2023-02-26T02:34:28.154Z,0.50
2023-02-26T02:37:07.242Z,0.50
2023-02-26T02:39:42.145Z,0.70
2023-02-26T02:42:26.076Z,0.40
2023-02-26T02:45:12.140Z,0.40
2023-02-26T02:47:43.213Z,0.10
2023-02-26T02:50:19.877Z,0.50
2023-02-26T02:52:59.044Z,0.20
2023-02-26T02:55:34.415Z,0.40
2023-02-26T02:58:10.071Z,0.10
2023-02-26T03:00:46.404Z,0.30
2023-02-26T03:03:35.681Z,0.50
2023-02-26T03:06:03.365Z,0.30
2023-02-26T03:08:36.896Z,0.10
2023-02-26T03:11:04.692Z,0.20
2023-02-26T03:13:33.046Z,0.40
2023-02-26T03:16:36.680Z,0.20
2023-02-26T03:19:44.657Z,0.10
2023-02-26T03:22:48.398Z,0.50
2023-02-26T03:25:28.903Z,0.10
2023-02-26T03:28:15.256Z,0.20
2023-02-26T03:30:43.762Z,0.20
2023-02-26T03:33:25.095Z,0.40
2023-02-26T03:36:17.317Z,0.60
2023-02-26T03:39:34.728Z,0.40
2023-02-26T03:42:15.786Z,0.50
2023-02-26T03:45:09.465Z,0.30
2023-02-26T03:47:40.832Z,0.60
2023-02-26T03:50:23.469Z,0.40
2023-02-26T03:53:07.829Z,0.40
2023-02-26T03:55:50.450Z,0.10
2023-02-26T03:58:40.760Z,0.50
2023-02-26T04:01:26.543Z,0.90
2023-02-26T04:04:00.493Z,0.60
2023-02-26T04:06:28.464Z,-0.10
2023-02-26T04:08:57.423Z,0.50
2023-02-26T04:11:25.835Z,0.40
2023-02-26T04:13:53.506Z,0.60
2023-02-26T04:16:20.712Z,0.40
2023-02-26T04:18:48.337Z,1.40
2023-02-26T04:21:20.356Z,0.50
2023-02-26T04:23:48.465Z,0.30
2023-02-26T04:26:15.960Z,0.50
2023-02-26T04:31:12.718Z,0.20
2023-02-26T04:33:41.437Z,0.30
2023-02-26T04:36:09.067Z,0.70
2023-02-26T04:38:36.889Z,0.70
2023-02-26T04:41:05.265Z,0.70
2023-02-26T04:43:33.034Z,0.30
2023-02-26T04:46:13.540Z,0.50
2023-02-26T04:48:41.089Z,0.10
2023-02-26T04:51:08.214Z,0.60
2023-02-26T04:53:35.563Z,0.70
2023-02-26T04:56:02.699Z,0.70
2023-02-26T04:58:30.178Z,0.80
2023-02-26T05:01:04.424Z,0.50
2023-02-26T05:08:27.507Z,0.30
2023-02-26T05:10:54.748Z,0.60
2023-02-26T05:15:50.120Z,0.40
2023-02-26T05:18:17.656Z,0.50
2023-02-26T05:20:44.693Z,0.40
2023-02-26T05:23:12.044Z,0.50
2023-02-26T05:25:39.535Z,0.20
2023-02-26T05:28:06.967Z,0.10
2023-02-26T05:30:33.951Z,0.60
2023-02-26T05:33:01.344Z,0.30
2023-02-26T05:35:28.332Z,0.30
2023-02-26T05:37:55.711Z,0.30
2023-02-26T05:40:23.143Z,0.40
2023-02-26T05:42:51.960Z,0.50
2023-02-26T05:45:19.328Z,0.10
2023-02-26T05:47:46.666Z,0.30
2023-02-26T05:50:13.789Z,0.40
2023-02-26T05:52:41.364Z,0.90
2023-02-26T05:55:09.537Z,0.70
2023-02-26T05:57:36.809Z,0.20
2023-02-26T06:00:06.563Z,0.30
2023-02-26T06:02:40.675Z,0.30
2023-02-26T06:05:08.712Z,0.70
2023-02-26T06:12:30.859Z,0.80
2023-02-26T06:14:58.130Z,0.70
2023-02-26T06:17:25.146Z,1.00
2023-02-26T06:19:52.410Z,0.70
2023-02-26T06:22:20.022Z,0.40
2023-02-26T06:24:47.454Z,0.50
2023-02-26T06:27:14.462Z,0.80
2023-02-26T06:29:41.744Z,0.50
2023-02-26T06:32:09.085Z,0.40
2023-02-26T06:34:36.410Z,0.40
2023-02-26T06:37:03.790Z,0.90
2023-02-26T06:39:31.430Z,0.90
2023-02-26T06:41:58.585Z,0.80
2023-02-26T06:44:26.008Z,0.80
2023-02-26T06:46:53.041Z,0.80
2023-02-26T06:49:20.442Z,0.90
2023-02-26T06:51:47.545Z,0.60
2023-02-26T06:54:14.858Z,0.70
2023-02-26T06:56:41.927Z,0.80
2023-02-26T06:59:11.840Z,0.20
2023-02-26T07:01:39.276Z,0.80
2023-02-26T07:04:06.551Z,1.10
2023-02-26T07:06:33.606Z,0.70
2023-02-26T07:09:01.340Z,0.80
2023-02-26T07:11:28.445Z,1.10
2023-02-26T07:13:55.763Z,1.00
2023-02-26T07:16:24.308Z,1.10
2023-02-26T07:18:51.919Z,1.10
2023-02-26T07:21:19.725Z,1.30
2023-02-26T07:23:47.218Z,1.30
2023-02-26T07:26:14.214Z,1.30
2023-02-26T07:28:41.434Z,1.00
2023-02-26T07:31:11.339Z,1.40
2023-02-26T07:33:39.842Z,1.10
2023-02-26T07:36:07.275Z,1.60
2023-02-26T07:38:34.572Z,1.50
2023-02-26T07:48:24.585Z,1.20
2023-02-26T07:50:53.104Z,1.40
2023-02-26T07:53:23.386Z,1.40
2023-02-26T07:55:50.455Z,1.60
2023-02-26T07:58:18.792Z,1.60
2023-02-26T08:00:45.765Z,1.50
2023-02-26T08:03:13.356Z,1.60
2023-02-26T08:05:40.422Z,2.30
2023-02-26T08:08:08.099Z,2.30
2023-02-26T08:10:35.627Z,2.50
2023-02-26T08:13:02.970Z,2.30
2023-02-26T08:15:30.156Z,2.40
2023-02-26T08:20:25.343Z,2.60
2023-02-26T08:22:52.757Z,2.80
2023-02-26T08:25:19.845Z,2.50
2023-02-26T08:30:15.043Z,2.20
2023-02-26T08:35:10.830Z,2.20
2023-02-26T08:37:38.620Z,2.30
2023-02-26T08:40:08.148Z,2.50
2023-02-26T08:42:36.047Z,2.50
2023-02-26T08:47:31.413Z,2.80
2023-02-26T08:52:30.397Z,2.90
2023-02-26T08:54:57.406Z,3.10
2023-02-26T08:57:25.015Z,3.00
2023-02-26T08:59:52.116Z,3.20
2023-02-26T09:02:19.417Z,4.10
2023-02-26T09:04:47.343Z,3.00
2023-02-26T09:07:14.659Z,3.30
2023-02-26T09:09:41.617Z,3.40
2023-02-26T09:12:08.945Z,3.40
2023-02-26T09:14:39.963Z,3.20
2023-02-26T09:17:07.376Z,3.20
2023-02-26T09:19:34.608Z,3.00
2023-02-26T09:22:01.957Z,3.00
2023-02-26T09:24:31.627Z,3.40
2023-02-26T09:26:59.058Z,3.30
2023-02-26T09:29:26.094Z,2.80
2023-02-26T09:31:53.968Z,3.00
2023-02-26T09:34:21.197Z,3.10
2023-02-26T09:36:48.642Z,3.40
2023-02-26T09:39:15.986Z,3.50
2023-02-26T09:41:47.877Z,3.90
2023-02-26T09:44:23.564Z,3.60
2023-02-26T09:47:05.859Z,3.60
2023-02-26T09:49:56.761Z,4.30
2023-02-26T09:52:38.378Z,4.00
2023-02-26T09:55:12.944Z,3.80
2023-02-26T09:57:46.838Z,3.70
2023-02-26T10:00:36.404Z,3.80
2023-02-26T10:03:28.035Z,4.10
2023-02-26T10:05:55.040Z,4.30
2023-02-26T10:08:28.242Z,4.30
2023-02-26T10:11:05.724Z,4.00
2023-02-26T10:13:56.769Z,3.70
2023-02-26T10:16:29.353Z,3.60
2023-02-26T10:19:10.902Z,3.50
2023-02-26T10:21:44.373Z,3.40
2023-02-26T10:24:18.451Z,3.20
2023-02-26T10:26:52.771Z,3.50
2023-02-26T10:29:46.977Z,3.20
2023-02-26T10:32:38.410Z,3.20
2023-02-26T10:35:14.249Z,4.10
2023-02-26T10:37:49.443Z,3.60
2023-02-26T10:40:44.618Z,3.60
2023-02-26T10:43:37.735Z,4.20
2023-02-26T10:46:33.641Z,4.20
2023-02-26T10:49:38.245Z,3.90
2023-02-26T10:52:25.965Z,3.70
2023-02-26T10:55:14.802Z,3.60
2023-02-26T10:57:50.417Z,3.60
2023-02-26T11:00:21.300Z,3.50
2023-02-26T11:02:52.174Z,3.50
2023-02-26T11:05:27.844Z,3.60
2023-02-26T11:07:59.879Z,4.10
2023-02-26T11:10:48.442Z,3.80
2023-02-26T11:13:15.984Z,4.00
2023-02-26T11:15:46.150Z,4.00
2023-02-26T11:18:18.383Z,4.20
2023-02-26T11:20:47.322Z,4.00
2023-02-26T11:23:21.133Z,4.30
2023-02-26T11:26:13.161Z,4.90
2023-02-26T11:28:49.646Z,4.40
2023-02-26T11:31:19.323Z,4.10
2023-02-26T11:33:53.424Z,4.30
2023-02-26T11:36:23.681Z,4.20
2023-02-26T11:39:02.137Z,3.50
2023-02-26T11:41:29.497Z,4.30
2023-02-26T11:44:04.873Z,4.20
2023-02-26T11:46:32.034Z,4.80
2023-02-26T11:49:01.799Z,4.00
2023-02-26T11:51:29.675Z,4.30
2023-02-26T11:54:01.622Z,4.00
2023-02-26T11:56:40.497Z,4.20
2023-02-26T11:59:34.198Z,3.80
2023-02-26T12:02:12.669Z,4.80
2023-02-26T12:04:45.031Z,3.80
2023-02-26T12:07:15.370Z,4.10
2023-02-26T12:09:44.374Z,4.90
2023-02-26T12:12:50.672Z,4.40
2023-02-26T12:16:00.395Z,5.40
2023-02-26T12:18:42.930Z,4.20
2023-02-26T12:21:25.185Z,4.30
2023-02-26T12:24:19.638Z,4.20
2023-02-26T12:26:55.652Z,4.30
2023-02-26T12:29:33.269Z,4.30
2023-02-26T12:32:20.340Z,4.20
2023-02-26T12:34:47.794Z,4.40
2023-02-26T12:37:38.274Z,4.30
2023-02-26T12:40:32.046Z,4.30
2023-02-26T12:43:14.330Z,4.20
2023-02-26T12:46:02.083Z,4.20
2023-02-26T12:48:41.500Z,4.00
2023-02-26T12:51:49.252Z,3.60
2023-02-26T12:54:29.356Z,3.60
2023-02-26T12:57:27.989Z,3.70
2023-02-26T13:00:31.259Z,4.00
2023-02-26T13:03:10.510Z,3.90
2023-02-26T13:05:53.482Z,3.40
2023-02-26T13:08:28.495Z,3.40
2023-02-26T13:11:19.992Z,3.90
2023-02-26T13:14:05.624Z,3.90
2023-02-26T13:17:16.558Z,3.80
2023-02-26T13:19:52.749Z,4.70
2023-02-26T13:22:38.287Z,3.50
2023-02-26T13:25:20.570Z,4.00
2023-02-26T13:27:49.020Z,3.70
2023-02-26T13:30:22.026Z,4.00
2023-02-26T13:32:53.920Z,3.90
2023-02-26T13:35:39.073Z,4.10
2023-02-26T13:38:22.288Z,4.00
2023-02-26T13:41:04.976Z,3.70
2023-02-26T13:43:50.785Z,4.00
2023-02-26T13:46:37.787Z,3.70
2023-02-26T13:49:34.077Z,3.70
2023-02-26T13:52:01.414Z,3.20
2023-02-26T13:54:42.775Z,3.40
2023-02-26T13:57:43.190Z,3.50
2023-02-26T14:00:24.855Z,3.20
2023-02-26T14:02:55.417Z,2.90
2023-02-26T14:05:52.692Z,3.30
2023-02-26T14:08:50.311Z,3.30
2023-02-26T14:14:30.935Z,2.80
2023-02-26T14:17:10.028Z,2.70
2023-02-26T14:19:43.920Z,2.40
2023-02-26T14:22:25.931Z,2.90
2023-02-26T14:25:17.815Z,3.30
2023-02-26T14:27:48.434Z,3.10
2023-02-26T14:30:33.348Z,3.60
2023-02-26T14:33:03.278Z,3.00
2023-02-26T14:35:35.148Z,2.90
2023-02-26T14:38:07.955Z,3.20
2023-02-26T14:41:06.875Z,2.80
2023-02-26T14:43:41.416Z,2.60
2023-02-26T14:46:10.154Z,2.60
2023-02-26T14:48:38.912Z,2.50
2023-02-26T14:51:19.541Z,2.70
2023-02-26T14:54:20.728Z,2.40
2023-02-26T14:56:50.589Z,2.90
2023-02-26T14:59:24.961Z,2.70
2023-02-26T15:02:16.667Z,2.70
2023-02-26T15:05:22.896Z,2.50
2023-02-26T15:08:06.334Z,2.90
2023-02-26T15:11:05.889Z,2.70
2023-02-26T15:13:56.083Z,2.40
2023-02-26T15:19:15.528Z,2.30
2023-02-26T15:22:18.127Z,2.10
2023-02-26T15:24:45.434Z,2.40
2023-02-26T15:27:19.004Z,2.70
2023-02-26T15:29:52.668Z,2.90
2023-02-26T15:32:31.603Z,2.10
2023-02-26T15:35:19.501Z,1.60
2023-02-26T15:38:05.311Z,2.20
2023-02-26T15:40:35.567Z,1.40
2023-02-26T15:43:05.369Z,2.20
2023-02-26T15:45:38.814Z,2.10
2023-02-26T15:48:15.258Z,2.30
2023-02-26T15:50:45.538Z,2.00
2023-02-26T15:53:23.047Z,1.50
2023-02-26T15:55:53.278Z,2.40
2023-02-26T15:58:45.075Z,1.70
2023-02-26T16:01:24.251Z,2.00
2023-02-26T16:03:55.267Z,2.30
2023-02-26T16:06:32.438Z,2.10
2023-02-26T16:09:00.796Z,1.60
2023-02-26T16:11:34.276Z,1.80
2023-02-26T16:14:02.926Z,1.50
2023-02-26T16:16:42.170Z,2.00
2023-02-26T16:19:15.252Z,2.10
2023-02-26T16:21:43.186Z,1.60
2023-02-26T16:24:16.409Z,1.40
2023-02-26T16:26:56.156Z,1.70
2023-02-26T16:29:27.498Z,1.90
2023-02-26T16:31:57.581Z,1.90
2023-02-26T16:34:37.741Z,1.60
2023-02-26T16:37:26.061Z,1.30
2023-02-26T16:39:58.366Z,1.40
2023-02-26T16:42:54.271Z,1.90
2023-02-26T16:45:37.063Z,1.60
2023-02-26T16:48:19.108Z,1.50
2023-02-26T16:51:00.871Z,1.50
2023-02-26T16:53:46.203Z,1.20
2023-02-26T16:56:19.442Z,1.30
2023-02-26T16:58:55.408Z,1.50
2023-02-26T17:01:23.904Z,1.30
2023-02-26T17:04:00.153Z,1.60
2023-02-26T17:06:39.020Z,1.40
2023-02-26T17:09:23.413Z,1.40
2023-02-26T17:11:51.017Z,1.60
2023-02-26T17:14:49.528Z,1.40
2023-02-26T17:17:17.014Z,1.40
2023-02-26T17:19:44.145Z,1.70
2023-02-26T17:22:15.874Z,1.40
2023-02-26T17:24:45.678Z,1.40
2023-02-26T17:27:33.090Z,1.50
2023-02-26T17:30:04.279Z,1.70
2023-02-26T17:34:59.670Z,1.40
2023-02-26T17:37:36.277Z,1.50
2023-02-26T17:40:05.488Z,1.10
2023-02-26T17:42:32.880Z,1.60
2023-02-26T17:45:00.125Z,1.10
2023-02-26T17:47:31.653Z,1.80
2023-02-26T17:52:27.968Z,1.20
2023-02-26T17:54:55.085Z,1.70
2023-02-26T17:57:23.343Z,1.40
2023-02-26T18:02:28.043Z,1.00
2023-02-26T18:04:58.093Z,0.90
2023-02-26T18:07:25.570Z,1.20
2023-02-26T18:09:52.739Z,1.20
2023-02-26T18:12:27.271Z,1.10
2023-02-26T18:14:54.660Z,1.20
2023-02-26T18:17:27.862Z,0.70
2023-02-26T18:19:55.035Z,0.50
2023-02-26T18:22:27.721Z,0.90
2023-02-26T18:24:56.782Z,0.80
2023-02-26T18:27:26.050Z,0.40
2023-02-26T18:29:53.744Z,0.90
2023-02-26T18:32:27.961Z,0.60
2023-02-26T18:34:55.314Z,0.60
2023-02-26T18:37:25.447Z,0.50
2023-02-26T18:39:53.206Z,0.60
2023-02-26T18:42:26.554Z,0.80
2023-02-26T18:44:54.374Z,0.60
2023-02-26T18:47:23.060Z,0.60
2023-02-26T18:49:51.803Z,0.80
2023-02-26T18:54:51.346Z,0.40
2023-02-26T18:57:18.620Z,0.60
2023-02-26T18:59:46.275Z,0.80
2023-02-26T19:02:14.674Z,0.60
2023-02-26T19:04:42.178Z,0.40
2023-02-26T19:07:12.379Z,0.70
2023-02-26T19:09:39.690Z,0.50
2023-02-26T19:12:09.034Z,0.70
2023-02-26T19:14:37.241Z,0.40
2023-02-26T19:17:05.640Z,0.70
2023-02-26T19:19:32.710Z,0.80
2023-02-26T19:22:00.896Z,1.00
2023-02-26T19:24:28.152Z,0.50
2023-02-26T19:26:56.212Z,1.30
2023-02-26T19:29:24.374Z,0.70
2023-02-26T19:31:51.870Z,0.80
2023-02-26T19:34:19.604Z,0.90
2023-02-26T19:36:49.198Z,0.90
2023-02-26T19:39:19.721Z,1.10
2023-02-26T19:41:53.438Z,0.90
2023-02-26T19:44:25.134Z,1.00
2023-02-26T19:46:53.023Z,0.80
2023-02-26T19:49:20.287Z,0.80
2023-02-26T19:51:47.633Z,0.90
2023-02-26T19:56:43.548Z,1.30
2023-02-26T19:59:10.842Z,1.20
2023-02-26T20:01:39.249Z,0.70
2023-02-26T20:04:06.294Z,1.40
2023-02-26T20:06:34.054Z,1.10
2023-02-26T20:09:01.100Z,1.30
2023-02-26T20:11:31.702Z,1.00
2023-02-26T20:13:58.784Z,1.10
2023-02-26T20:16:26.249Z,1.20
2023-02-26T20:18:53.544Z,1.10
2023-02-26T20:21:22.078Z,1.20
2023-02-26T20:23:49.246Z,1.20
2023-02-26T20:26:17.169Z,1.10
2023-02-26T20:28:44.568Z,1.00
2023-02-26T20:31:12.145Z,1.10
2023-02-26T20:33:39.530Z,1.30
2023-02-26T20:36:10.230Z,0.80
2023-02-26T20:38:37.797Z,1.00
2023-02-26T20:41:05.393Z,1.00
2023-02-26T20:43:32.953Z,0.70
2023-02-26T20:46:00.964Z,0.90
2023-02-26T20:48:32.588Z,0.90
2023-02-26T20:51:02.240Z,0.70
2023-02-26T20:55:57.150Z,0.90
2023-02-26T20:58:27.628Z,0.70
2023-02-26T21:00:56.533Z,0.70
2023-02-26T21:03:25.228Z,0.30
2023-02-26T21:05:53.450Z,0.80
2023-02-26T21:08:21.766Z,0.60
2023-02-26T21:10:52.685Z,0.40
2023-02-26T21:13:19.966Z,0.60
2023-02-26T21:15:50.035Z,0.30
2023-02-26T21:28:08.780Z,0.80
2023-02-26T21:30:36.269Z,0.10
2023-02-26T21:33:03.763Z,0.00
2023-02-26T21:35:31.498Z,0.50
2023-02-26T21:40:26.598Z,0.20
2023-02-26T21:42:53.747Z,0.30
2023-02-26T21:47:48.660Z,0.50
2023-02-26T21:50:16.212Z,1.00
2023-02-26T21:52:43.416Z,0.70
2023-02-26T21:55:11.627Z,0.70
2023-02-26T21:57:38.722Z,0.70
2023-02-26T22:00:10.275Z,0.90
2023-02-26T22:02:40.444Z,0.60
2023-02-26T22:05:11.430Z,0.80
2023-02-26T22:10:08.029Z,0.80
2023-02-26T22:12:35.149Z,0.90
2023-02-26T22:15:02.530Z,0.50
2023-02-26T22:17:31.128Z,0.50
2023-02-26T22:19:58.804Z,0.50
2023-02-26T22:22:27.072Z,0.80
2023-02-26T22:24:54.928Z,0.70
2023-02-26T22:27:22.498Z,-0.20
2023-02-26T22:29:49.882Z,0.20
2023-02-26T22:32:16.893Z,0.60
2023-02-26T22:34:46.131Z,0.70
2023-02-26T22:37:13.593Z,-0.20
2023-02-26T22:39:42.566Z,0.20
2023-02-26T22:42:09.850Z,0.40
2023-02-26T22:44:37.166Z,0.40
2023-02-26T22:47:04.720Z,0.50
2023-02-26T22:49:32.015Z,0.30
2023-02-26T22:51:59.025Z,0.60
2023-02-26T22:54:26.650Z,0.40
2023-02-26T22:56:53.924Z,0.40
2023-02-26T22:59:21.381Z,0.90
2023-02-26T23:01:48.445Z,0.70
2023-02-26T23:04:15.895Z,0.40
2023-02-26T23:06:42.872Z,1.00
2023-02-26T23:09:10.192Z,0.20
2023-02-26T23:11:37.234Z,0.40
2023-02-26T23:14:04.566Z,0.30
2023-02-26T23:16:31.552Z,0.50
2023-02-26T23:18:59.175Z,0.40
2023-02-26T23:21:26.467Z,0.10
2023-02-26T23:23:54.200Z,0.70
2023-02-26T23:31:19.268Z,0.40
2023-02-26T23:33:47.264Z,0.30
2023-02-26T23:36:14.776Z,0.00
2023-02-26T23:38:42.357Z,0.40
2023-02-26T23:41:09.666Z,0.30
2023-02-26T23:43:37.513Z,0.40
2023-02-26T23:46:05.412Z,0.30
2023-02-26T23:48:32.919Z,0.40
2023-02-26T23:51:00.400Z,0.80
2023-02-26T23:53:27.995Z,0.40
2023-02-26T23:55:58.775Z,0.80
2023-02-26T23:58:28.161Z,0.80
